Time;durP1;ratioP1;P1;durP2;ratioP2;P2;SDS_P1;SDS_P2;PMS_P1;PMS_P2;Temp;Humidity;BMP_temperature;BMP_pressure;BME280_temperature;BME280_humidity;BME280_pressure;Samples;Min_cycle;Max_cycle;Signal;HPM_P1;HPM_P2
2023/10/11 00:03:14;;;;;;;1.00;1.00;;;17.10;99.90;;;;;;5052036;28;20052;-87
2023/10/11 00:05:40;;;;;;;0.68;0.68;;;17.10;99.90;;;;;;5064072;28;20052;-84
2023/10/11 00:08:13;;;;;;;0.85;0.85;;;17.00;99.90;;;;;;5053067;28;20084;-86
2023/10/11 00:10:59;;;;;;;0.77;0.77;;;17.00;99.90;;;;;;5049040;28;20088;-86
2023/10/11 00:13:33;;;;;;;0.80;0.80;;;17.00;99.90;;;;;;5032971;28;20110;-82
2023/10/11 00:16:08;;;;;;;0.82;0.82;;;17.00;99.90;;;;;;5048070;28;20056;-83
2023/10/11 00:18:36;;;;;;;0.82;0.82;;;16.90;99.90;;;;;;5045414;28;20147;-82
2023/10/11 00:21:11;;;;;;;0.60;0.60;;;16.90;99.90;;;;;;5052253;28;20075;-83
2023/10/11 00:23:41;;;;;;;0.82;0.82;;;16.90;99.90;;;;;;5047062;28;20045;-86
2023/10/11 00:26:07;;;;;;;0.70;0.70;;;16.90;99.90;;;;;;5064585;28;20069;-83
2023/10/11 00:28:37;;;;;;;0.65;0.65;;;16.90;99.90;;;;;;5065941;28;20058;-84
2023/10/11 00:31:06;;;;;;;0.60;0.60;;;16.90;99.90;;;;;;5051351;28;20446;-87
2023/10/11 00:33:33;;;;;;;0.80;0.80;;;16.90;99.90;;;;;;5049053;28;20049;-87
2023/10/11 00:36:01;;;;;;;0.85;0.85;;;16.90;99.90;;;;;;5052174;28;20066;-86
2023/10/11 00:38:27;;;;;;;0.77;0.77;;;16.90;99.90;;;;;;5044590;28;20117;-85
2023/10/11 00:41:06;;;;;;;0.98;0.98;;;16.90;99.90;;;;;;5045401;28;20052;-83
2023/10/11 00:43:37;;;;;;;0.88;0.88;;;16.80;99.90;;;;;;5043105;28;20047;-88
2023/10/11 00:46:08;;;;;;;0.70;0.70;;;16.80;99.90;;;;;;5051984;28;20444;-83
2023/10/11 00:48:35;;;;;;;0.77;0.77;;;16.80;99.90;;;;;;5043299;28;20126;-82
2023/10/11 00:51:01;;;;;;;0.68;0.68;;;16.80;99.90;;;;;;5045624;28;20057;-89
2023/10/11 00:53:34;;;;;;;0.90;0.90;;;16.80;99.90;;;;;;5050885;28;20516;-89
2023/10/11 00:56:06;;;;;;;0.93;0.93;;;16.80;99.90;;;;;;5052644;28;20052;-85
2023/10/11 00:58:33;;;;;;;0.93;0.93;;;16.80;99.90;;;;;;5054746;28;20044;-84
2023/10/11 01:01:03;;;;;;;0.95;0.95;;;16.80;99.90;;;;;;5051502;28;20097;-83
2023/10/11 01:03:33;;;;;;;1.00;1.00;;;16.80;99.90;;;;;;5039823;28;20174;-85
2023/10/11 01:06:00;;;;;;;0.82;0.82;;;16.70;99.90;;;;;;5045267;28;20410;-86
2023/10/11 01:08:27;;;;;;;1.10;1.10;;;16.70;99.90;;;;;;5033385;28;20482;-90
2023/10/11 01:10:53;;;;;;;0.93;0.93;;;16.70;99.90;;;;;;5059618;28;20072;-86
2023/10/11 01:13:19;;;;;;;0.90;0.90;;;16.70;99.90;;;;;;5025632;28;20101;-84
2023/10/11 01:15:47;;;;;;;0.88;0.88;;;16.70;99.90;;;;;;5049106;28;20594;-88
2023/10/11 01:18:13;;;;;;;1.10;1.10;;;16.70;99.90;;;;;;5051469;28;20123;-86
2023/10/11 01:20:41;;;;;;;1.08;1.08;;;16.80;99.90;;;;;;5051679;28;20121;-85
2023/10/11 01:23:07;;;;;;;1.10;1.10;;;16.80;99.90;;;;;;5050307;28;20143;-86
2023/10/11 01:25:33;;;;;;;0.98;0.98;;;16.80;99.90;;;;;;5051272;28;20131;-92
2023/10/11 01:28:07;;;;;;;1.15;1.15;;;16.70;99.90;;;;;;5051593;28;20045;-94
2023/10/11 01:30:33;;;;;;;0.98;0.98;;;16.80;99.90;;;;;;5068687;28;20072;-87
2023/10/11 01:32:59;;;;;;;1.10;1.10;;;16.80;99.90;;;;;;5047263;28;20900;-89
2023/10/11 01:35:30;;;;;;;0.93;0.93;;;16.80;99.90;;;;;;5038420;28;20066;-84
2023/10/11 01:38:04;;;;;;;0.95;0.95;;;16.80;99.90;;;;;;5032576;28;20048;-90
2023/10/11 01:40:32;;;;;;;1.45;1.38;;;16.80;99.90;;;;;;5039834;28;20054;-91
2023/10/11 01:42:59;;;;;;;1.13;1.13;;;16.70;99.90;;;;;;5028880;28;20127;-85
2023/10/11 01:45:25;;;;;;;1.10;1.10;;;16.70;99.90;;;;;;5054690;28;20044;-86
2023/10/11 01:47:56;;;;;;;1.25;1.25;;;16.70;99.90;;;;;;5054546;28;20138;-87
2023/10/11 01:50:25;;;;;;;0.93;0.93;;;16.70;99.90;;;;;;5070892;28;20133;-81
2023/10/11 01:52:51;;;;;;;1.00;1.00;;;16.70;99.90;;;;;;5055904;28;20566;-89
2023/10/11 01:55:20;;;;;;;1.20;1.20;;;16.60;99.90;;;;;;5049901;28;20445;-85
2023/10/11 01:57:45;;;;;;;1.95;1.85;;;16.60;99.90;;;;;;5070465;28;20072;-82
2023/10/11 02:00:16;;;;;;;1.20;1.20;;;16.60;99.90;;;;;;5047499;28;20076;-85
2023/10/11 02:02:47;;;;;;;0.90;0.90;;;16.50;99.90;;;;;;5047243;28;20494;-85
2023/10/11 02:05:14;;;;;;;1.30;1.30;;;16.60;99.90;;;;;;5054649;28;20106;-86
2023/10/11 02:07:40;;;;;;;1.30;1.30;;;16.60;99.90;;;;;;5046095;28;20117;-84
2023/10/11 02:10:12;;;;;;;1.20;1.20;;;16.50;99.90;;;;;;5049400;28;20052;-81
2023/10/11 02:12:46;;;;;;;1.00;1.00;;;16.50;99.90;;;;;;5044588;28;20055;-82
2023/10/11 02:15:21;;;;;;;1.13;1.13;;;16.50;99.90;;;;;;5049491;28;20059;-82
2023/10/11 02:17:48;;;;;;;1.30;1.30;;;16.50;99.90;;;;;;5046439;28;20048;-80
2023/10/11 02:20:20;;;;;;;1.17;1.17;;;16.40;99.90;;;;;;5057059;28;21373;-81
2023/10/11 02:22:46;;;;;;;1.23;1.23;;;16.40;99.90;;;;;;5045764;28;20047;-81
2023/10/11 02:25:15;;;;;;;2.17;2.08;;;16.40;99.90;;;;;;5053946;28;20071;-85
2023/10/11 02:27:42;;;;;;;1.20;1.20;;;16.40;99.90;;;;;;5045748;28;20045;-84
2023/10/11 02:30:13;;;;;;;1.92;1.80;;;16.40;99.90;;;;;;5050009;28;20246;-82
2023/10/11 02:32:42;;;;;;;1.15;1.15;;;16.40;99.90;;;;;;5051418;28;20040;-82
2023/10/11 02:35:12;;;;;;;1.20;1.20;;;16.30;99.90;;;;;;5052567;28;20528;-84
2023/10/11 02:37:37;;;;;;;1.23;1.23;;;16.30;99.90;;;;;;5053721;28;20098;-84
2023/10/11 02:40:08;;;;;;;1.30;1.30;;;16.30;99.90;;;;;;5055069;28;20156;-86
2023/10/11 02:42:37;;;;;;;1.33;1.33;;;16.20;99.90;;;;;;5061441;28;20047;-88
2023/10/11 02:45:07;;;;;;;1.30;1.30;;;16.30;99.90;;;;;;5038304;28;20047;-92
2023/10/11 02:47:36;;;;;;;1.55;1.45;;;16.20;99.90;;;;;;5032373;28;20056;-87
2023/10/11 02:50:05;;;;;;;1.33;1.30;;;16.20;99.90;;;;;;5082438;28;20878;-85
2023/10/11 02:52:39;;;;;;;1.50;1.40;;;16.10;99.90;;;;;;5048888;28;20040;-88
2023/10/11 02:57:45;;;;;;;1.50;1.40;;;16.20;99.90;;;;;;5083741;28;20045;-90
2023/10/11 03:00:23;;;;;;;1.55;1.45;;;16.20;99.90;;;;;;5033853;28;20524;-86
2023/10/11 03:02:54;;;;;;;1.65;1.55;;;16.10;99.90;;;;;;5080750;28;20117;-88
2023/10/11 03:05:27;;;;;;;1.52;1.42;;;16.00;99.90;;;;;;5048941;28;21976;-84
2023/10/11 03:08:13;;;;;;;1.60;1.50;;;16.00;99.90;;;;;;5039145;28;20052;-88
2023/10/11 03:10:53;;;;;;;1.63;1.52;;;16.00;99.90;;;;;;5045490;28;20052;-83
2023/10/11 03:13:40;;;;;;;1.70;1.60;;;16.00;99.90;;;;;;5049168;28;20049;-83
2023/10/11 03:16:11;;;;;;;1.17;1.17;;;15.90;99.90;;;;;;5053150;28;20052;-86
2023/10/11 03:18:39;;;;;;;1.45;1.35;;;15.90;99.90;;;;;;5068179;28;20127;-88
2023/10/11 03:21:16;;;;;;;1.17;1.17;;;15.90;99.90;;;;;;5049643;28;20119;-84
2023/10/11 03:23:55;;;;;;;1.42;1.35;;;15.90;99.90;;;;;;5081589;28;20426;-86
2023/10/11 03:28:58;;;;;;;1.48;1.38;;;16.00;99.90;;;;;;5058274;28;20180;-85
2023/10/11 03:31:29;;;;;;;1.85;1.75;;;16.00;99.90;;;;;;5054831;28;20032;-94
2023/10/11 03:34:00;;;;;;;1.30;1.30;;;15.90;99.90;;;;;;5055530;28;20037;-88
2023/10/11 03:36:43;;;;;;;1.30;1.27;;;15.90;99.90;;;;;;5057663;28;20481;-93
2023/10/11 03:39:15;;;;;;;1.65;1.55;;;15.90;99.90;;;;;;5059557;28;20795;-83
2023/10/11 03:41:46;;;;;;;1.45;1.40;;;15.90;99.90;;;;;;5057323;28;20051;-83
2023/10/11 03:44:17;;;;;;;1.50;1.42;;;15.80;99.90;;;;;;5050675;28;20044;-81
2023/10/11 03:46:47;;;;;;;1.65;1.55;;;15.80;99.90;;;;;;5068894;28;20090;-85
2023/10/11 03:51:48;;;;;;;1.38;1.35;;;15.70;99.90;;;;;;5058277;28;20153;-84
2023/10/11 03:54:22;;;;;;;1.13;1.13;;;15.60;99.90;;;;;;5073283;28;20086;-93
2023/10/11 03:56:53;;;;;;;1.58;1.48;;;15.60;99.90;;;;;;5038294;28;20660;-88
2023/10/11 03:59:26;;;;;;;1.52;1.45;;;15.60;99.90;;;;;;5093512;28;20568;-84
2023/10/11 04:02:00;;;;;;;1.27;1.27;;;15.60;99.90;;;;;;5046800;28;20045;-81
2023/10/11 04:04:26;;;;;;;1.52;1.45;;;15.60;99.90;;;;;;5053856;28;20129;-82
2023/10/11 04:07:01;;;;;;;1.48;1.40;;;15.60;99.90;;;;;;5047212;28;20052;-81
2023/10/11 04:09:37;;;;;;;1.15;1.15;;;15.50;99.90;;;;;;5058667;28;20131;-81
2023/10/11 04:12:04;;;;;;;1.52;1.45;;;15.50;99.90;;;;;;5048232;28;20045;-85
2023/10/11 04:14:40;;;;;;;0.93;0.93;;;15.50;99.90;;;;;;5052902;28;20048;-83
2023/10/11 04:19:48;;;;;;;0.93;0.93;;;15.50;99.90;;;;;;5053052;28;20487;-84
2023/10/11 04:22:17;;;;;;;0.88;0.88;;;15.50;99.90;;;;;;5032357;28;20115;-83
2023/10/11 04:24:45;;;;;;;0.85;0.85;;;15.50;99.90;;;;;;5047377;28;20121;-85
2023/10/11 04:29:51;;;;;;;0.98;0.98;;;15.50;99.90;;;;;;5049637;28;20595;-85
2023/10/11 04:35:10;;;;;;;0.90;0.90;;;15.50;99.90;;;;;;5051913;28;20405;-83
2023/10/11 04:37:44;;;;;;;0.90;0.90;;;15.50;99.90;;;;;;5069241;28;20056;-83
2023/10/11 04:40:24;;;;;;;0.82;0.82;;;15.60;99.90;;;;;;5053455;28;20048;-86
2023/10/11 04:43:04;;;;;;;0.88;0.88;;;15.60;99.90;;;;;;5048947;28;20048;-82
2023/10/11 04:45:32;;;;;;;1.05;1.05;;;15.70;99.90;;;;;;5034649;28;20054;-86
2023/10/11 04:47:58;;;;;;;1.00;1.00;;;15.70;99.90;;;;;;5056088;28;20505;-91
2023/10/11 04:50:24;;;;;;;0.88;0.88;;;15.70;99.90;;;;;;5055389;28;20051;-84
2023/10/11 04:52:49;;;;;;;0.95;0.95;;;15.80;99.90;;;;;;5046966;28;20052;-88
2023/10/11 04:55:15;;;;;;;1.00;1.00;;;15.80;99.90;;;;;;5087868;28;20075;-88
2023/10/11 05:00:45;;;;;;;0.95;0.95;;;15.80;99.90;;;;;;5047784;28;20041;-87
2023/10/11 05:03:12;;;;;;;1.00;1.00;;;15.80;99.90;;;;;;5052217;28;20125;-86
2023/10/11 05:05:58;;;;;;;1.00;1.00;;;15.80;99.90;;;;;;5028034;28;20131;-85
2023/10/11 05:08:51;;;;;;;1.02;1.02;;;15.80;99.90;;;;;;5047284;28;20048;-90
2023/10/11 05:11:25;;;;;;;1.00;1.00;;;15.90;99.90;;;;;;5054416;28;20681;-88
2023/10/11 05:14:05;;;;;;;0.85;0.85;;;15.90;99.90;;;;;;5048342;28;20489;-90
2023/10/11 05:16:37;;;;;;;0.90;0.90;;;15.80;99.90;;;;;;5034553;28;20040;-88
2023/10/11 05:19:06;;;;;;;0.90;0.90;;;15.90;99.90;;;;;;5051466;28;20076;-84
2023/10/11 05:21:38;;;;;;;0.93;0.93;;;15.90;99.90;;;;;;5055596;28;20396;-85
2023/10/11 05:24:14;;;;;;;0.95;0.95;;;15.90;99.90;;;;;;5054889;28;20185;-87
2023/10/11 05:26:48;;;;;;;0.98;0.98;;;15.90;99.90;;;;;;5053606;28;20526;-89
2023/10/11 05:29:24;;;;;;;;;;;15.90;99.90;;;;;;5049869;28;20112;-87
2023/10/11 05:32:33;;;;;;;1.08;1.08;;;15.90;99.90;;;;;;5048949;28;19936;-85
2023/10/11 05:35:07;;;;;;;1.02;1.02;;;15.80;99.90;;;;;;5042886;28;20761;-83
2023/10/11 05:51:14;;;;;;;;;;;15.70;99.90;;;;;;5057059;28;20101;-84
2023/10/11 05:53:46;;;;;;;1.00;1.00;;;15.60;99.90;;;;;;5058293;28;19931;-91
2023/10/11 05:56:20;;;;;;;0.88;0.88;;;15.60;99.90;;;;;;5049565;28;20395;-87
2023/10/11 05:58:49;;;;;;;0.98;0.98;;;15.60;99.90;;;;;;5054638;28;20041;-88
2023/10/11 06:01:17;;;;;;;0.95;0.95;;;15.60;99.90;;;;;;5055989;28;20048;-84
2023/10/11 06:03:43;;;;;;;0.93;0.93;;;15.60;99.90;;;;;;5060420;28;20040;-86
2023/10/11 06:06:32;;;;;;;0.85;0.85;;;15.60;99.90;;;;;;5052306;28;20041;-88
2023/10/11 06:08:58;;;;;;;0.90;0.90;;;15.50;99.90;;;;;;5058938;28;20079;-92
2023/10/11 06:11:29;;;;;;;0.82;0.82;;;15.60;99.90;;;;;;5035933;28;20118;-92
2023/10/11 06:14:04;;;;;;;;;;;15.50;99.90;;;;;;5031679;28;20119;-84
2023/10/11 06:16:37;;;;;;;0.95;0.95;;;15.60;99.90;;;;;;5047036;28;19936;-85
2023/10/11 06:19:19;;;;;;;1.00;1.00;;;15.50;99.90;;;;;;5050804;28;20508;-88
2023/10/11 06:21:59;;;;;;;0.90;0.90;;;15.70;99.90;;;;;;5050947;28;20318;-85
2023/10/11 06:24:35;;;;;;;0.82;0.82;;;15.70;99.90;;;;;;5050483;28;20056;-87
2023/10/11 06:29:55;;;;;;;0.80;0.80;;;15.60;99.90;;;;;;5027298;28;20640;-87
2023/10/11 06:32:22;;;;;;;0.80;0.80;;;15.70;99.90;;;;;;5055292;28;20039;-88
2023/10/11 06:34:50;;;;;;;0.80;0.80;;;15.60;99.90;;;;;;5057093;28;20037;-88
2023/10/11 06:37:25;;;;;;;0.80;0.80;;;15.70;99.90;;;;;;5078209;28;20490;-85
2023/10/11 06:42:21;;;;;;;0.77;0.77;;;15.70;99.90;;;;;;5050482;28;20075;-92
2023/10/11 06:44:57;;;;;;;0.82;0.82;;;15.90;99.90;;;;;;5036036;28;20601;-90
2023/10/11 06:47:25;;;;;;;0.85;0.85;;;15.90;99.90;;;;;;5034746;28;20049;-87
2023/10/11 06:49:58;;;;;;;0.82;0.82;;;15.90;99.90;;;;;;5061477;28;20040;-89
2023/10/11 06:52:33;;;;;;;0.82;0.82;;;15.90;99.90;;;;;;5051102;28;20041;-92
2023/10/11 06:55:14;;;;;;;;;;;15.90;99.90;;;;;;5040927;28;20044;-88
2023/10/11 06:57:40;;;;;;;0.80;0.80;;;15.90;99.90;;;;;;5050158;28;19978;-89
2023/10/11 07:00:29;;;;;;;0.88;0.88;;;16.00;99.90;;;;;;5040288;28;20044;-91
2023/10/11 07:03:07;;;;;;;0.93;0.93;;;16.10;99.90;;;;;;5055597;28;20601;-91
2023/10/11 07:05:41;;;;;;;0.82;0.82;;;16.10;99.90;;;;;;5052669;28;20485;-89
2023/10/11 07:08:09;;;;;;;;;;;16.20;99.90;;;;;;5054437;28;20049;-91
2023/10/11 07:10:40;;;;;;;0.88;0.88;;;16.30;99.90;;;;;;5057094;28;20394;-83
2023/10/11 07:13:07;;;;;;;0.77;0.77;;;16.30;99.90;;;;;;5054585;28;20527;-92
2023/10/11 07:15:40;;;;;;;0.77;0.77;;;16.40;99.90;;;;;;5058799;28;20053;-89
2023/10/11 07:18:27;;;;;;;0.80;0.80;;;16.40;99.90;;;;;;5056015;28;20669;-86
2023/10/11 07:21:10;;;;;;;0.75;0.75;;;16.40;99.90;;;;;;5040065;28;20119;-85
2023/10/11 07:29:05;;;;;;;0.70;0.70;;;16.40;99.90;;;;;;5053985;28;20041;-89
2023/10/11 07:31:49;;;;;;;0.70;0.70;;;16.40;99.90;;;;;;5057202;28;20050;-90
2023/10/11 07:34:22;;;;;;;;;;;16.40;99.90;;;;;;5038779;28;20047;-85
2023/10/11 07:36:51;;;;;;;0.75;0.75;;;16.30;99.90;;;;;;5046870;28;19920;-87
2023/10/11 07:39:26;;;;;;;0.70;0.70;;;16.50;99.90;;;;;;5042161;28;20128;-93
2023/10/11 07:42:02;;;;;;;0.70;0.70;;;16.50;99.90;;;;;;5059814;28;20044;-87
2023/10/11 07:44:30;;;;;;;0.70;0.70;;;16.50;99.90;;;;;;5039990;28;20040;-87
2023/10/11 07:46:56;;;;;;;0.70;0.70;;;16.50;99.90;;;;;;5039086;28;20047;-84
2023/10/11 07:49:25;;;;;;;0.70;0.70;;;16.60;99.90;;;;;;5037170;28;20052;-91
2023/10/11 07:52:01;;;;;;;0.70;0.70;;;16.70;99.90;;;;;;5039833;28;20526;-87
2023/10/11 07:54:27;;;;;;;0.77;0.77;;;16.70;99.90;;;;;;5046457;28;20067;-94
2023/10/11 07:56:57;;;;;;;0.75;0.75;;;16.70;99.90;;;;;;5069644;28;20142;-86
2023/10/11 07:59:27;;;;;;;0.70;0.70;;;16.80;99.90;;;;;;5056929;28;20516;-91
2023/10/11 08:01:54;;;;;;;0.70;0.70;;;16.80;99.90;;;;;;5035979;28;20048;-86
2023/10/11 08:04:22;;;;;;;0.70;0.70;;;16.90;99.90;;;;;;5049896;28;20051;-94
2023/10/11 08:06:59;;;;;;;0.70;0.70;;;16.90;99.90;;;;;;5033341;28;20405;-93
2023/10/11 08:09:34;;;;;;;0.70;0.70;;;17.00;99.90;;;;;;5028383;28;20071;-84
2023/10/11 08:12:03;;;;;;;0.65;0.65;;;17.00;99.90;;;;;;5062454;28;20048;-89
2023/10/11 08:14:45;;;;;;;0.70;0.70;;;17.10;99.90;;;;;;5056848;28;20106;-91
2023/10/11 08:17:14;;;;;;;0.60;0.60;;;17.20;99.90;;;;;;5042928;28;20097;-88
2023/10/11 08:19:44;;;;;;;0.70;0.70;;;17.20;99.90;;;;;;5042607;28;20040;-90
2023/10/11 08:22:14;;;;;;;0.63;0.63;;;17.20;99.90;;;;;;5058607;28;20075;-89
2023/10/11 08:24:49;;;;;;;0.65;0.65;;;17.10;99.90;;;;;;5037665;28;20132;-90
2023/10/11 08:27:28;;;;;;;0.63;0.63;;;17.10;99.90;;;;;;5056918;28;20041;-86
2023/10/11 08:30:15;;;;;;;0.60;0.60;;;17.30;99.90;;;;;;5060991;28;20071;-88
2023/10/11 08:32:47;;;;;;;0.60;0.60;;;17.40;99.90;;;;;;5060983;28;20041;-91
2023/10/11 08:35:23;;;;;;;0.70;0.70;;;17.30;99.90;;;;;;5056740;28;20076;-93
2023/10/11 08:38:03;;;;;;;0.65;0.65;;;17.30;99.90;;;;;;5035029;28;20051;-88
2023/10/11 08:40:35;;;;;;;0.70;0.70;;;17.40;99.90;;;;;;5040390;28;20127;-93
2023/10/11 08:43:17;;;;;;;0.60;0.60;;;17.20;99.90;;;;;;5041927;28;20080;-90
2023/10/11 08:46:05;;;;;;;0.63;0.63;;;17.30;99.90;;;;;;5036653;28;20136;-93
2023/10/11 08:48:38;;;;;;;0.70;0.70;;;17.30;99.90;;;;;;5045830;28;20093;-87
2023/10/11 08:51:10;;;;;;;0.70;0.70;;;17.30;99.90;;;;;;5060175;28;20049;-88
2023/10/11 08:54:00;;;;;;;0.60;0.60;;;17.40;99.90;;;;;;5040556;28;20118;-95
2023/10/11 08:56:25;;;;;;;0.60;0.60;;;17.60;99.90;;;;;;5035814;28;20072;-89
2023/10/11 08:58:53;;;;;;;0.60;0.60;;;17.60;99.90;;;;;;5034009;28;20121;-86
2023/10/11 09:01:24;;;;;;;0.60;0.60;;;17.60;99.90;;;;;;5043807;28;20039;-89
2023/10/11 09:04:29;;;;;;;0.60;0.60;;;17.60;99.90;;;;;;5041691;28;20062;-91
2023/10/11 09:06:57;;;;;;;0.60;0.60;;;17.50;99.90;;;;;;4949913;28;20042;-92
2023/10/11 09:09:39;;;;;;;0.80;0.80;;;17.50;99.90;;;;;;5041601;28;20066;-89
2023/10/11 09:12:23;;;;;;;0.60;0.60;;;17.60;99.90;;;;;;5053152;28;20056;-87
2023/10/11 09:15:03;;;;;;;;;;;17.40;99.90;;;;;;5055377;28;20054;-92
2023/10/11 09:17:39;;;;;;;0.70;0.70;;;17.70;99.90;;;;;;5044423;28;19930;-85
2023/10/11 09:23:05;;;;;;;0.60;0.60;;;17.70;99.90;;;;;;5034834;28;20139;-86
2023/10/11 09:26:08;;;;;;;0.60;0.60;;;17.50;99.90;;;;;;5058673;28;20132;-89
2023/10/11 09:28:40;;;;;;;0.68;0.68;;;17.70;99.90;;;;;;5052240;28;20202;-91
2023/10/11 09:31:20;;;;;;;0.70;0.70;;;17.70;99.90;;;;;;5041236;28;20071;-89
2023/10/11 09:33:59;;;;;;;0.70;0.70;;;17.70;99.90;;;;;;5036777;28;20060;-95
2023/10/11 09:36:43;;;;;;;0.70;0.70;;;17.60;99.90;;;;;;5056535;28;20059;-88
2023/10/11 09:39:15;;;;;;;0.60;0.60;;;17.60;99.90;;;;;;5039438;28;20044;-88
2023/10/11 09:41:53;;;;;;;0.60;0.60;;;17.60;99.90;;;;;;5056557;28;20051;-95
2023/10/11 09:44:29;;;;;;;0.60;0.60;;;17.80;99.90;;;;;;5039912;28;20189;-89
2023/10/11 09:47:03;;;;;;;0.60;0.60;;;17.80;99.90;;;;;;5040351;28;20137;-93
2023/10/11 09:49:41;;;;;;;0.60;0.60;;;17.70;99.90;;;;;;5052653;28;20055;-85
2023/10/11 09:52:10;;;;;;;0.60;0.60;;;17.90;99.90;;;;;;5057719;28;20126;-93
2023/10/11 09:54:40;;;;;;;0.60;0.60;;;17.80;99.90;;;;;;5048003;28;20032;-85
2023/10/11 09:57:33;;;;;;;0.60;0.60;;;17.80;99.90;;;;;;5027530;28;20047;-94
2023/10/11 10:00:26;;;;;;;0.60;0.60;;;17.50;99.90;;;;;;5050478;28;20043;-90
2023/10/11 10:02:52;;;;;;;0.60;0.60;;;17.60;99.90;;;;;;5050348;28;20044;-88
2023/10/11 10:05:22;;;;;;;0.60;0.60;;;17.90;99.90;;;;;;5049234;28;20131;-89
2023/10/11 10:07:51;;;;;;;0.82;0.82;;;17.70;99.90;;;;;;5045950;28;20576;-90
2023/10/11 10:10:26;;;;;;;0.60;0.60;;;17.70;99.90;;;;;;5052295;28;20040;-83
2023/10/11 10:12:55;;;;;;;0.60;0.60;;;17.90;99.90;;;;;;5051630;28;20048;-86
2023/10/11 10:15:23;;;;;;;0.60;0.60;;;17.90;99.90;;;;;;5047647;28;20114;-86
2023/10/11 10:18:00;;;;;;;0.60;0.60;;;17.70;99.90;;;;;;5029594;28;20138;-85
2023/10/11 10:21:17;;;;;;;0.60;0.60;;;17.50;99.90;;;;;;5046635;28;20049;-83
2023/10/11 10:23:38;;;;;;;0.60;0.60;;;17.60;99.90;;;;;;5068400;28;20144;-85
2023/10/11 10:26:03;;;;;;;0.60;0.60;;;17.40;99.90;;;;;;5051820;28;20055;-83
2023/10/11 10:28:34;;;;;;;0.60;0.60;;;17.70;99.90;;;;;;5066428;28;20032;-85
2023/10/11 10:31:27;;;;;;;0.60;0.60;;;17.40;99.90;;;;;;5076207;28;20056;-86
2023/10/11 10:34:04;;;;;;;0.60;0.60;;;17.70;99.90;;;;;;5044241;28;20521;-86
2023/10/11 10:36:31;;;;;;;0.60;0.60;;;17.70;99.90;;;;;;5044928;28;20049;-86
2023/10/11 10:41:40;;;;;;;0.60;0.60;;;17.40;99.90;;;;;;5051486;28;20131;-89
2023/10/11 10:44:18;;;;;;;0.60;0.60;;;18.10;99.90;;;;;;5028362;28;20544;-86
2023/10/11 10:46:59;;;;;;;0.60;0.60;;;17.50;99.90;;;;;;5041601;28;20047;-82
2023/10/11 10:49:42;;;;;;;0.60;0.60;;;18.00;99.90;;;;;;5031704;28;20098;-83
2023/10/11 10:52:18;;;;;;;0.60;0.60;;;17.70;99.90;;;;;;5035158;28;20037;-91
2023/10/11 10:55:03;;;;;;;0.60;0.60;;;18.10;99.90;;;;;;5026723;28;20363;-85
2023/10/11 10:57:41;;;;;;;0.60;0.60;;;18.20;99.90;;;;;;5030451;28;20094;-87
2023/10/11 11:00:23;;;;;;;0.63;0.63;;;18.00;99.90;;;;;;5034640;28;20044;-93
2023/10/11 11:02:50;;;;;;;0.50;0.50;;;18.10;99.90;;;;;;5021897;28;20132;-85
2023/10/11 11:05:15;;;;;;;0.60;0.60;;;18.30;99.90;;;;;;5034208;28;20071;-90
2023/10/11 11:07:47;;;;;;;0.57;0.57;;;18.70;99.90;;;;;;5064817;28;20312;-95
2023/10/11 11:10:20;;;;;;;0.52;0.52;;;18.90;99.90;;;;;;5036425;28;20062;-88
2023/10/11 11:12:52;;;;;;;0.50;0.50;;;19.20;99.90;;;;;;5018069;28;20098;-93
2023/10/11 11:15:21;;;;;;;0.50;0.50;;;19.10;99.90;;;;;;5052190;28;20282;-88
2023/10/11 11:17:48;;;;;;;0.50;0.50;;;18.90;99.90;;;;;;5038634;28;20040;-93
2023/10/11 11:20:27;;;;;;;0.50;0.50;;;19.40;99.90;;;;;;5034299;28;20521;-89
2023/10/11 11:22:54;;;;;;;0.50;0.50;;;18.90;99.90;;;;;;5001125;28;20049;-94
2023/10/11 11:25:27;;;;;;;0.50;0.50;;;18.90;99.90;;;;;;5050423;28;20041;-90
2023/10/11 11:28:16;;;;;;;0.50;0.50;;;18.90;99.90;;;;;;5037393;28;20068;-92
2023/10/11 11:30:51;;;;;;;1.00;0.60;;;19.00;99.90;;;;;;5015969;28;20469;-93
2023/10/11 11:33:28;;;;;;;0.50;0.50;;;19.20;99.90;;;;;;5062458;28;20045;-89
2023/10/11 11:36:10;;;;;;;0.50;0.50;;;19.40;99.90;;;;;;5033452;28;20041;-90
2023/10/11 11:38:48;;;;;;;0.50;0.50;;;19.80;99.90;;;;;;5022218;28;20052;-91
2023/10/11 11:41:21;;;;;;;0.50;0.50;;;19.50;99.90;;;;;;5025736;28;20045;-92
2023/10/11 11:43:48;;;;;;;0.50;0.50;;;19.60;99.90;;;;;;5043180;28;20432;-88
2023/10/11 11:46:15;;;;;;;0.50;0.50;;;19.50;99.90;;;;;;5035360;28;20048;-91
2023/10/11 11:48:44;;;;;;;0.50;0.50;;;20.10;99.90;;;;;;5025680;28;20040;-92
2023/10/11 11:51:23;;;;;;;0.50;0.50;;;20.40;99.90;;;;;;5032677;28;20713;-94
2023/10/11 11:53:49;;;;;;;0.50;0.50;;;20.20;99.90;;;;;;5016665;28;20048;-91
2023/10/11 11:56:23;;;;;;;0.60;0.60;;;20.00;99.90;;;;;;5052250;28;20045;-93
2023/10/11 11:59:00;;;;;;;0.60;0.60;;;19.90;99.90;;;;;;5053659;28;20056;-88
2023/10/11 12:01:29;;;;;;;0.60;0.60;;;19.80;99.90;;;;;;5052592;28;20110;-92
2023/10/11 12:03:59;;;;;;;0.60;0.60;;;19.70;99.90;;;;;;5040690;28;20049;-95
2023/10/11 12:06:34;;;;;;;0.60;0.60;;;19.80;99.90;;;;;;5027770;28;20688;-90
2023/10/11 12:09:02;;;;;;;0.60;0.60;;;19.70;99.90;;;;;;5028719;28;20049;-91
2023/10/11 12:11:29;;;;;;;0.60;0.60;;;19.80;99.90;;;;;;5038392;28;20045;-90
2023/10/11 12:13:56;;;;;;;0.60;0.60;;;19.90;99.90;;;;;;5033719;28;21983;-91
2023/10/11 12:16:31;;;;;;;0.60;0.60;;;19.90;99.90;;;;;;5026597;28;20139;-95
2023/10/11 12:18:59;;;;;;;0.60;0.60;;;20.00;99.90;;;;;;5020325;28;20059;-92
2023/10/11 12:21:26;;;;;;;0.60;0.60;;;20.30;99.90;;;;;;5040333;28;20090;-93
2023/10/11 12:23:52;;;;;;;0.60;0.60;;;20.30;99.90;;;;;;5026524;28;20668;-91
2023/10/11 12:26:18;;;;;;;0.60;0.60;;;20.30;99.90;;;;;;5024478;28;20041;-86
2023/10/11 12:28:52;;;;;;;0.60;0.60;;;20.30;99.90;;;;;;5037505;28;20048;-94
2023/10/11 12:31:18;;;;;;;0.60;0.60;;;20.30;99.90;;;;;;5026665;28;20045;-92
2023/10/11 12:33:44;;;;;;;0.60;0.60;;;20.20;99.90;;;;;;5019557;28;20037;-86
2023/10/11 12:36:11;;;;;;;0.60;0.60;;;20.20;99.90;;;;;;5055441;28;20040;-90
2023/10/11 12:38:38;;;;;;;0.60;0.60;;;20.10;99.90;;;;;;5016743;28;20047;-91
2023/10/11 12:41:14;;;;;;;0.60;0.60;;;20.20;99.90;;;;;;5016311;28;20063;-91
2023/10/11 12:43:40;;;;;;;0.60;0.60;;;20.30;99.90;;;;;;5016185;28;20045;-83
2023/10/11 12:46:06;;;;;;;0.60;0.60;;;20.30;99.90;;;;;;5023704;28;20056;-95
2023/10/11 12:48:33;;;;;;;0.60;0.60;;;20.40;99.90;;;;;;5026724;28;20041;-92
2023/10/11 12:51:00;;;;;;;0.60;0.60;;;20.40;99.90;;;;;;5065511;28;20800;-88
2023/10/11 12:53:29;;;;;;;0.63;0.63;;;20.70;99.90;;;;;;5027901;28;20037;-90
2023/10/11 12:55:57;;;;;;;0.65;0.65;;;20.80;99.90;;;;;;5022795;28;20052;-90
2023/10/11 12:58:39;;;;;;;0.82;0.82;;;21.20;99.90;;;;;;5032244;28;20041;-89
2023/10/11 13:01:14;;;;;;;0.93;0.93;;;21.40;99.90;;;;;;5024043;28;20170;-94
2023/10/11 13:03:43;;;;;;;1.00;1.00;;;21.00;99.90;;;;;;5025123;28;20041;-95
2023/10/11 13:06:12;;;;;;;1.10;1.10;;;21.00;99.90;;;;;;5042316;28;20134;-86
2023/10/11 13:08:38;;;;;;;1.00;1.00;;;21.00;99.90;;;;;;5018180;28;20040;-92
2023/10/11 13:11:11;;;;;;;1.05;1.05;;;20.90;99.90;;;;;;5036923;28;20041;-89
2023/10/11 13:13:37;;;;;;;1.00;1.00;;;20.70;99.90;;;;;;5018747;28;20048;-87
2023/10/11 13:16:06;;;;;;;1.23;1.23;;;20.90;99.90;;;;;;5019705;28;20049;-92
2023/10/11 13:18:40;;;;;;;1.08;1.08;;;20.70;99.90;;;;;;5007997;28;20051;-89
2023/10/11 13:21:16;;;;;;;1.00;1.00;;;20.70;99.90;;;;;;5019219;28;20044;-93
2023/10/11 13:23:43;;;;;;;1.00;1.00;;;20.60;99.90;;;;;;5021334;28;20626;-88
2023/10/11 13:26:18;;;;;;;0.95;0.95;;;20.90;99.90;;;;;;5031516;28;20079;-93
2023/10/11 13:28:53;;;;;;;1.05;1.05;;;20.90;99.90;;;;;;5020764;28;20067;-92
2023/10/11 13:31:19;;;;;;;1.05;1.05;;;20.90;99.90;;;;;;5019907;28;20078;-90
2023/10/11 13:33:44;;;;;;;1.20;1.20;;;20.90;99.90;;;;;;5040349;28;20146;-87
2023/10/11 13:36:12;;;;;;;1.30;1.20;;;21.00;99.90;;;;;;5017937;28;20045;-84
2023/10/11 13:38:47;;;;;;;1.10;1.10;;;21.00;99.90;;;;;;5037910;28;20087;-95
2023/10/11 13:41:16;;;;;;;1.00;1.00;;;21.00;99.90;;;;;;5019961;28;20814;-89
2023/10/11 13:43:42;;;;;;;1.10;1.10;;;21.40;99.90;;;;;;5039632;28;20646;-87
2023/10/11 13:46:14;;;;;;;1.15;1.15;;;21.50;99.90;;;;;;5021498;28;20055;-91
2023/10/11 13:48:40;;;;;;;1.25;1.25;;;21.40;99.90;;;;;;5017785;28;20041;-92
2023/10/11 13:51:07;;;;;;;1.23;1.23;;;21.10;99.90;;;;;;5034207;28;20088;-93
2023/10/11 13:53:41;;;;;;;1.13;1.13;;;21.00;99.90;;;;;;5051649;28;20049;-83
2023/10/11 13:56:31;;;;;;;1.15;1.15;;;21.10;99.90;;;;;;5040623;28;20052;-86
2023/10/11 13:58:59;;;;;;;1.20;1.20;;;21.10;99.90;;;;;;5021629;28;20046;-88
2023/10/11 14:01:46;;;;;;;1.20;1.20;;;21.10;99.90;;;;;;5035284;28;20060;-88
2023/10/11 14:04:15;;;;;;;1.20;1.20;;;21.00;99.90;;;;;;5028772;28;20048;-85
2023/10/11 14:06:42;;;;;;;1.15;1.15;;;21.10;99.90;;;;;;5013568;28;20102;-88